Sahiwal Weather



Sahiwal's Current Weather

Temprature 20.124o clear sky

clear sky

Rain: 0 %

Min Temprature20.124o
Max Temprature20.124o
Humidity66
Wind Speed1.41 m/h
Sun Rise06:40:34
Sun Set18:01:39
Current Time: 23-Feb-2019 15:39:17
Lat/Lon: 30.67, 73.11




Sahiwal's Geo Location




Sahiwal's Weather Forecast

Time Overall Temp Min Temp Max Temp Humidity Wind Speed Rain
23-Feb-2019 (Sat)
17:00:00 clear sky 19.490 19.490 20.124 66 1.41 m/h 0 %
20:00:00 clear sky 14.360 14.360 14.833 68 1.17 m/h 0 %
23:00:00 broken clouds 12.420 12.420 12.740 76 1.22 m/h 0 %
24-Feb-2019 (Sun)
02:00:00 broken clouds 12.830 12.830 12.985 76 1.41 m/h 0 %
05:00:00 few clouds 11.917 11.917 11.917 79 1.26 m/h 0 %
08:00:00 clear sky 12.803 12.803 12.803 78 1.31 m/h 0 %
11:00:00 clear sky 19.774 19.774 19.774 89 2.06 m/h 0 %
14:00:00 clear sky 21.281 21.281 21.281 85 2.07 m/h 0 %
17:00:00 scattered clouds 20.521 20.521 20.521 68 1.65 m/h 0 %
20:00:00 broken clouds 16.518 16.518 16.518 68 1.76 m/h 0 %
23:00:00 light rain 12.861 12.861 12.861 92 1.71 m/h 189 %
25-Feb-2019 (Mon)
02:00:00 light rain 11.630 11.630 11.630 93 1.07 m/h 14 %
05:00:00 light rain 10.452 10.452 10.452 97 2.56 m/h 48 %
08:00:00 light rain 11.370 11.370 11.370 96 3.67 m/h 54 %
11:00:00 light rain 14.322 14.322 14.322 100 3.91 m/h 105 %
14:00:00 few clouds 17.698 17.698 17.698 100 2.42 m/h 0 %
17:00:00 scattered clouds 17.987 17.987 17.987 85 2.06 m/h 0 %
20:00:00 clear sky 14.273 14.273 14.273 84 2.71 m/h 0 %
23:00:00 few clouds 11.767 11.767 11.767 90 4.31 m/h 0 %
26-Feb-2019 (Tue)
02:00:00 few clouds 10.426 10.426 10.426 94 3.56 m/h 0 %
05:00:00 broken clouds 9.722 9.722 9.722 96 3.11 m/h 0 %
08:00:00 overcast clouds 10.582 10.582 10.582 94 2.87 m/h 0 %
11:00:00 broken clouds 13.267 13.267 13.267 100 2.77 m/h 0 %
14:00:00 broken clouds 15.421 15.421 15.421 96 3.26 m/h 0 %
17:00:00 light rain 15.339 15.339 15.339 85 3.21 m/h 7 %
20:00:00 broken clouds 13.511 13.511 13.511 87 2.57 m/h 0 %
23:00:00 light rain 13.148 13.148 13.148 90 2.12 m/h 12 %
27-Feb-2019 (Wed)
02:00:00 light rain 11.731 11.731 11.731 96 1.51 m/h 3 %
05:00:00 clear sky 10.343 10.343 10.343 93 1.8 m/h 0 %
08:00:00 clear sky 10.965 10.965 10.965 92 1.42 m/h 0 %
11:00:00 clear sky 15.895 15.895 15.895 100 2.06 m/h 0 %
14:00:00 clear sky 17.611 17.611 17.611 92 2.05 m/h 0 %
17:00:00 few clouds 17.373 17.373 17.373 74 2.51 m/h 0 %
20:00:00 scattered clouds 14.542 14.542 14.542 72 2.57 m/h 0 %
23:00:00 broken clouds 12.941 12.941 12.941 78 4.02 m/h 0 %
28-Feb-2019 (Thu)
02:00:00 overcast clouds 11.866 11.866 11.866 86 1.76 m/h 0 %
05:00:00 scattered clouds 11.388 11.388 11.388 88 2.76 m/h 0 %
08:00:00 scattered clouds 12.065 12.065 12.065 87 3.36 m/h 0 %
11:00:00 broken clouds 15.697 15.697 15.697 94 2.01 m/h 0 %
14:00:00 scattered clouds 16.954 16.954 16.954 89 3.12 m/h 0 %

Famous Cities (60)